Time;durP1;ratioP1;P1;durP2;ratioP2;P2;SDS_P1;SDS_P2;PMS_P1;PMS_P2;Temp;Humidity;BMP_temperature;BMP_pressure;BME280_temperature;BME280_humidity;BME280_pressure;Samples;Min_cycle;Max_cycle;Signal;HPM_P1;HPM_P2
2023/05/03 00:00:39;;;;;;;;;;;;;;;9.97;48.37;101713.38;4950538;28;6780;-77
2023/05/03 00:03:05;;;;;;;;;;;;;;;9.92;48.50;101713.81;4968889;28;6958;-77
2023/05/03 00:05:31;;;;;;;;;;;;;;;9.86;49.17;101715.19;4969297;28;7218;-77
2023/05/03 00:07:57;;;;;;;;;;;;;;;9.81;48.80;101721.63;4963815;28;7233;-77
2023/05/03 00:10:24;;;;;;;;;;;;;;;9.77;49.05;101722.19;4955101;28;6963;-77
2023/05/03 00:12:49;;;;;;;;;;;;;;;9.72;48.84;101715.84;4960159;28;6868;-76
2023/05/03 00:15:15;;;;;;;;;;;;;;;9.67;49.19;101728.31;4970891;28;6784;-77
2023/05/03 00:17:41;;;;;;;;;;;;;;;9.62;49.29;101721.97;4950361;28;7204;-77
2023/05/03 00:20:07;;;;;;;;;;;;;;;9.59;49.87;101724.28;4970365;28;6772;-77
2023/05/03 00:22:34;;;;;;;;;;;;;;;9.56;48.94;101719.88;4968502;28;6800;-77
2023/05/03 00:24:59;;;;;;;;;;;;;;;9.55;49.83;101723.16;4957950;28;6792;-77
2023/05/03 00:27:25;;;;;;;;;;;;;;;9.50;49.35;101714.28;4966416;28;7274;-77
2023/05/03 00:29:51;;;;;;;;;;;;;;;9.48;50.07;101720.06;4943768;28;7512;-77
2023/05/03 00:32:18;;;;;;;;;;;;;;;9.44;50.16;101713.81;4977639;28;6811;-77
2023/05/03 00:34:44;;;;;;;;;;;;;;;9.40;50.11;101715.25;4950070;28;7011;-77
2023/05/03 00:37:10;;;;;;;;;;;;;;;9.36;50.24;101720.03;4964662;28;7314;-77
2023/05/03 00:39:36;;;;;;;;;;;;;;;9.29;50.33;101722.16;4966101;28;6951;-77
2023/05/03 00:42:03;;;;;;;;;;;;;;;9.25;50.14;101717.56;4961827;28;7205;-77
2023/05/03 00:44:29;;;;;;;;;;;;;;;9.21;49.55;101713.03;4956028;28;6848;-77
2023/05/03 00:46:56;;;;;;;;;;;;;;;9.16;50.67;101710.13;4967878;28;6984;-77
2023/05/03 00:49:24;;;;;;;;;;;;;;;9.13;50.18;101711.56;4970030;28;6796;-77
2023/05/03 00:51:53;;;;;;;;;;;;;;;9.10;49.91;101712.19;4965552;28;6796;-77
2023/05/03 00:54:20;;;;;;;;;;;;;;;9.08;50.54;101708.66;4961334;28;6991;-77
2023/05/03 00:56:46;;;;;;;;;;;;;;;9.09;51.19;101712.13;4964210;28;7484;-77
2023/05/03 00:59:12;;;;;;;;;;;;;;;9.08;50.46;101707.75;4956219;28;7431;-77
2023/05/03 01:01:38;;;;;;;;;;;;;;;9.06;50.39;101699.97;4970705;28;6791;-77
2023/05/03 01:04:06;;;;;;;;;;;;;;;9.05;50.97;101697.28;4953316;28;6768;-77
2023/05/03 01:06:40;;;;;;;;;;;;;;;9.02;50.96;101695.38;4970733;28;7723;-77
2023/05/03 01:09:58;;;;;;;;;;;;;;;8.96;50.23;101702.63;4969672;28;7500;-77
2023/05/03 01:12:48;;;;;;;;;;;;;;;8.87;51.76;101703.69;4946663;28;7034;-77
2023/05/03 01:15:48;;;;;;;;;;;;;;;8.81;50.72;101702.34;4954127;28;7910;-77
2023/05/03 01:18:20;;;;;;;;;;;;;;;8.73;51.38;101699.19;4969984;28;7303;-77
2023/05/03 01:20:49;;;;;;;;;;;;;;;8.68;50.72;101701.38;4968607;28;7007;-77
2023/05/03 01:23:45;;;;;;;;;;;;;;;8.64;51.54;101714.72;4972226;28;6859;-77
2023/05/03 01:26:16;;;;;;;;;;;;;;;8.59;50.49;101704.16;4984432;28;7007;-77
2023/05/03 01:28:42;;;;;;;;;;;;;;;8.55;50.73;101703.78;4951793;28;6776;-77
2023/05/03 01:31:09;;;;;;;;;;;;;;;8.52;51.56;101701.00;4954073;28;6939;-77
2023/05/03 01:34:17;;;;;;;;;;;;;;;8.48;51.16;101707.50;4969708;28;7780;-77
2023/05/03 01:36:44;;;;;;;;;;;;;;;8.46;52.04;101704.81;4953840;28;6824;-77
2023/05/03 01:39:20;;;;;;;;;;;;;;;8.45;51.19;101699.59;4966280;28;7251;-77
2023/05/03 01:41:50;;;;;;;;;;;;;;;8.44;51.33;101700.38;4984958;28;8966;-77
2023/05/03 01:44:18;;;;;;;;;;;;;;;8.41;51.93;101703.59;4958948;28;7288;-77
2023/05/03 01:46:45;;;;;;;;;;;;;;;8.39;51.70;101697.44;4971319;28;6796;-77
2023/05/03 01:49:11;;;;;;;;;;;;;;;8.39;51.78;101701.69;4962204;28;6977;-77
2023/05/03 01:51:37;;;;;;;;;;;;;;;8.38;52.43;101700.78;4968735;28;6972;-77
2023/05/03 01:54:03;;;;;;;;;;;;;;;8.36;51.71;101701.47;4972963;28;6864;-77
2023/05/03 01:56:32;;;;;;;;;;;;;;;8.35;52.26;101713.31;4958981;28;7258;-77
2023/05/03 01:58:58;;;;;;;;;;;;;;;8.34;52.44;101706.44;4985276;28;6994;-77
2023/05/03 02:01:24;;;;;;;;;;;;;;;8.33;52.71;101713.19;4970050;28;6867;-77
2023/05/03 02:03:49;;;;;;;;;;;;;;;8.33;52.53;101712.31;4968005;28;6780;-77
2023/05/03 02:06:15;;;;;;;;;;;;;;;8.34;52.01;101719.22;4984409;28;6819;-77
2023/05/03 02:08:41;;;;;;;;;;;;;;;8.33;52.07;101725.09;4966063;28;7216;-77
2023/05/03 02:11:06;;;;;;;;;;;;;;;8.32;52.68;101726.75;4955743;28;6832;-77
2023/05/03 02:13:34;;;;;;;;;;;;;;;8.34;52.10;101737.09;4967825;28;6859;-77
2023/05/03 02:15:59;;;;;;;;;;;;;;;8.34;53.17;101734.53;4953486;28;7738;-77
2023/05/03 02:18:26;;;;;;;;;;;;;;;8.34;53.01;101743.06;4967527;28;6852;-77
2023/05/03 02:20:51;;;;;;;;;;;;;;;8.32;52.82;101736.97;4968210;28;7245;-77
2023/05/03 02:23:17;;;;;;;;;;;;;;;8.32;52.20;101738.66;4982998;28;6951;-77
2023/05/03 02:25:43;;;;;;;;;;;;;;;8.30;53.12;101738.50;4982348;28;6768;-77
2023/05/03 02:28:08;;;;;;;;;;;;;;;8.27;52.08;101732.25;4970312;28;7742;-77
2023/05/03 02:30:34;;;;;;;;;;;;;;;8.25;52.72;101733.81;4968229;28;7011;-77
2023/05/03 02:33:00;;;;;;;;;;;;;;;8.22;52.77;101734.47;4969333;28;7235;-77
2023/05/03 02:35:26;;;;;;;;;;;;;;;8.19;52.64;101734.22;4961874;28;7014;-77
2023/05/03 02:37:51;;;;;;;;;;;;;;;8.16;52.70;101727.22;4969242;28;6986;-78
2023/05/03 02:40:17;;;;;;;;;;;;;;;8.15;52.85;101738.19;4954050;28;6776;-77
2023/05/03 02:42:43;;;;;;;;;;;;;;;8.14;52.63;101736.41;4985068;28;6832;-77
2023/05/03 02:45:09;;;;;;;;;;;;;;;8.12;52.69;101731.94;4972428;28;6812;-77
2023/05/03 02:47:35;;;;;;;;;;;;;;;8.10;52.30;101731.81;4954009;28;6807;-80
2023/05/03 02:50:00;;;;;;;;;;;;;;;8.10;52.67;101734.38;4983263;28;6800;-76
2023/05/03 02:52:26;;;;;;;;;;;;;;;8.10;53.71;101736.06;4951664;28;7045;-76
2023/05/03 02:54:51;;;;;;;;;;;;;;;8.09;52.89;101730.03;4949712;28;7033;-76
2023/05/03 02:57:17;;;;;;;;;;;;;;;8.10;52.44;101724.16;4951559;28;6768;-76
2023/05/03 02:59:43;;;;;;;;;;;;;;;8.10;53.35;101724.16;4967047;28;7869;-76
2023/05/03 03:02:08;;;;;;;;;;;;;;;8.08;52.98;101710.38;4962641;28;8010;-76
2023/05/03 03:04:34;;;;;;;;;;;;;;;8.09;52.84;101709.59;4965787;28;7271;-76
2023/05/03 03:07:00;;;;;;;;;;;;;;;8.10;53.74;101708.84;4958807;28;6832;-76
2023/05/03 03:09:25;;;;;;;;;;;;;;;8.12;52.98;101709.88;4962903;28;6780;-76
2023/05/03 03:11:52;;;;;;;;;;;;;;;8.13;53.40;101704.00;4967767;28;6788;-76
2023/05/03 03:14:17;;;;;;;;;;;;;;;8.13;53.74;101703.09;4964346;28;7186;-76
2023/05/03 03:16:44;;;;;;;;;;;;;;;8.12;53.24;101697.09;4966159;28;6788;-76
2023/05/03 03:19:10;;;;;;;;;;;;;;;8.12;53.18;101692.00;4959473;28;6796;-76
2023/05/03 03:21:36;;;;;;;;;;;;;;;8.10;53.77;101688.41;4950688;28;9848;-76
2023/05/03 03:24:03;;;;;;;;;;;;;;;8.08;53.83;101687.41;4968929;28;6776;-76
2023/05/03 03:26:29;;;;;;;;;;;;;;;8.08;53.02;101689.94;4934565;28;6784;-76
2023/05/03 03:28:55;;;;;;;;;;;;;;;8.05;52.92;101675.28;4966829;28;7068;-76
2023/05/03 03:31:24;;;;;;;;;;;;;;;8.02;53.44;101671.63;4965094;28;7126;-76
2023/05/03 03:33:50;;;;;;;;;;;;;;;8.01;53.25;101663.03;4983804;28;6804;-76
2023/05/03 03:36:16;;;;;;;;;;;;;;;7.99;53.01;101663.69;4949447;28;6836;-76
2023/05/03 03:38:41;;;;;;;;;;;;;;;8.00;53.93;101666.38;4968079;28;8424;-76
2023/05/03 03:41:07;;;;;;;;;;;;;;;7.99;53.88;101659.50;4965968;28;7877;-76
2023/05/03 03:43:33;;;;;;;;;;;;;;;8.01;53.41;101657.03;4983942;28;6990;-76
2023/05/03 03:45:58;;;;;;;;;;;;;;;8.00;52.96;101651.06;4951506;28;7322;-76
2023/05/03 03:48:24;;;;;;;;;;;;;;;7.99;53.52;101654.38;4965636;28;7663;-76
2023/05/03 03:50:50;;;;;;;;;;;;;;;8.00;53.31;101655.25;4969998;28;7003;-76
2023/05/03 03:53:16;;;;;;;;;;;;;;;7.96;53.64;101649.00;4985104;28;6985;-76
2023/05/03 03:55:41;;;;;;;;;;;;;;;7.95;53.88;101660.00;4954112;28;6991;-76
2023/05/03 03:58:07;;;;;;;;;;;;;;;7.95;53.73;101671.91;4971865;28;6836;-76
2023/05/03 04:00:34;;;;;;;;;;;;;;;7.93;53.13;101674.31;4971753;28;6785;-76
2023/05/03 04:03:01;;;;;;;;;;;;;;;7.92;52.91;101669.97;4959723;28;6792;-76
2023/05/03 04:05:26;;;;;;;;;;;;;;;7.91;53.17;101680.97;4954331;28;6776;-76
2023/05/03 04:07:52;;;;;;;;;;;;;;;7.89;53.53;101680.84;4985491;28;6960;-78
2023/05/03 04:10:18;;;;;;;;;;;;;;;7.87;53.93;101673.81;4958149;28;7276;-78
2023/05/03 04:12:43;;;;;;;;;;;;;;;7.86;53.22;101684.81;4968212;28;6839;-76
2023/05/03 04:15:10;;;;;;;;;;;;;;;7.83;53.63;101685.47;4968456;28;6836;-76
2023/05/03 04:17:36;;;;;;;;;;;;;;;7.80;53.36;101685.22;4955296;28;7062;-76
2023/05/03 04:20:08;;;;;;;;;;;;;;;7.78;53.43;101690.22;4967597;28;7014;-76
2023/05/03 04:22:33;;;;;;;;;;;;;;;7.76;52.92;101695.94;4981604;28;7474;-76
2023/05/03 04:25:01;;;;;;;;;;;;;;;7.71;53.39;101687.03;4981876;28;7278;-76
2023/05/03 04:27:27;;;;;;;;;;;;;;;7.69;53.80;101688.56;4951699;28;7013;-76
2023/05/03 04:29:53;;;;;;;;;;;;;;;7.66;53.64;101688.31;4959917;28;7910;-76
2023/05/03 04:32:22;;;;;;;;;;;;;;;7.65;53.53;101684.88;4980659;28;8518;-76
2023/05/03 04:34:53;;;;;;;;;;;;;;;7.66;53.92;101690.88;4984926;28;7896;-76
2023/05/03 04:37:18;;;;;;;;;;;;;;;7.68;53.68;101691.88;4958211;28;6864;-76
2023/05/03 04:39:44;;;;;;;;;;;;;;;7.71;53.33;101695.59;4985770;28;7281;-76
2023/05/03 04:42:14;;;;;;;;;;;;;;;7.75;54.47;101691.63;4960914;28;7055;-76
2023/05/03 04:44:43;;;;;;;;;;;;;;;7.78;54.27;101700.41;4955749;28;7959;-76
2023/05/03 04:47:09;;;;;;;;;;;;;;;7.84;54.70;101700.00;4987366;28;6831;-76
2023/05/03 04:49:35;;;;;;;;;;;;;;;7.92;54.63;101713.38;4969992;28;6788;-76
2023/05/03 04:52:01;;;;;;;;;;;;;;;8.00;54.86;101714.88;4962765;28;6843;-76
2023/05/03 04:54:26;;;;;;;;;;;;;;;8.14;54.87;101712.53;4962619;28;6787;-76
2023/05/03 04:56:54;;;;;;;;;;;;;;;8.34;56.20;101714.09;4950395;28;7285;-76
2023/05/03 04:59:19;;;;;;;;;;;;;;;8.59;56.19;101722.03;4955330;28;7234;-76
2023/05/03 05:01:45;;;;;;;;;;;;;;;8.85;56.15;101717.13;4951641;28;6806;-76
2023/05/03 05:04:11;;;;;;;;;;;;;;;9.13;56.64;101719.22;4951479;28;7233;-76
2023/05/03 05:06:37;;;;;;;;;;;;;;;9.42;57.19;101718.84;4967353;28;6776;-76
2023/05/03 05:09:06;;;;;;;;;;;;;;;9.70;56.93;101722.53;4969849;28;7219;-76
2023/05/03 05:11:33;;;;;;;;;;;;;;;9.93;55.80;101726.75;4957767;28;8306;-75
2023/05/03 05:13:58;;;;;;;;;;;;;;;10.18;55.54;101737.84;4966150;28;6983;-75
2023/05/03 05:16:24;;;;;;;;;;;;;;;10.40;55.68;101728.34;4971342;28;7092;-75
2023/05/03 05:18:50;;;;;;;;;;;;;;;10.62;54.83;101731.53;4961784;28;7831;-75
2023/05/03 05:21:15;;;;;;;;;;;;;;;10.82;54.08;101732.91;4971637;28;7123;-75
2023/05/03 05:23:41;;;;;;;;;;;;;;;11.04;53.98;101734.38;4970210;28;7340;-75
2023/05/03 05:26:06;;;;;;;;;;;;;;;11.21;53.58;101727.78;4939061;28;7088;-75
2023/05/03 05:28:32;;;;;;;;;;;;;;;11.39;53.42;101735.81;4965884;28;7227;-75
2023/05/03 05:30:58;;;;;;;;;;;;;;;11.56;53.13;101734.38;4970031;28;6947;-75
2023/05/03 05:33:24;;;;;;;;;;;;;;;11.70;52.81;101729.25;4981604;28;6955;-75
2023/05/03 05:35:50;;;;;;;;;;;;;;;11.84;52.15;101735.25;4986291;28;7253;-75
2023/05/03 05:38:16;;;;;;;;;;;;;;;11.97;51.63;101735.25;4968829;28;7813;-74
2023/05/03 05:40:42;;;;;;;;;;;;;;;12.07;51.62;101735.09;4969669;28;7351;-76
2023/05/03 05:43:08;;;;;;;;;;;;;;;12.12;50.52;101735.38;4947932;28;6796;-77
2023/05/03 05:45:35;;;;;;;;;;;;;;;12.12;49.30;101742.19;4979788;28;6984;-77
2023/05/03 05:48:00;;;;;;;;;;;;;;;12.06;49.04;101746.13;4982415;28;6808;-77
2023/05/03 05:50:26;;;;;;;;;;;;;;;11.96;48.47;101746.31;4969697;28;7758;-77
2023/05/03 05:52:52;;;;;;;;;;;;;;;11.86;48.57;101754.22;4969213;28;7155;-77
2023/05/03 05:55:18;;;;;;;;;;;;;;;11.74;48.87;101749.22;4962449;28;7051;-77
2023/05/03 05:57:44;;;;;;;;;;;;;;;11.65;49.04;101758.09;4952786;28;6815;-77
2023/05/03 06:00:14;;;;;;;;;;;;;;;11.58;48.50;101757.56;4961026;28;6804;-77
2023/05/03 06:02:40;;;;;;;;;;;;;;;11.52;49.22;101764.09;4968493;28;6967;-77
2023/05/03 06:05:07;;;;;;;;;;;;;;;11.47;49.02;101764.59;4962941;28;7272;-77
2023/05/03 06:07:32;;;;;;;;;;;;;;;11.46;49.38;101766.25;4955169;28;10108;-77
2023/05/03 06:09:58;;;;;;;;;;;;;;;11.45;49.15;101766.16;4964428;28;7101;-77
2023/05/03 06:12:24;;;;;;;;;;;;;;;11.48;49.06;101774.06;4959804;28;6796;-76
2023/05/03 06:14:50;;;;;;;;;;;;;;;11.49;49.76;101769.03;4964508;28;6925;-77
2023/05/03 06:17:16;;;;;;;;;;;;;;;11.55;49.59;101767.66;4935635;28;7757;-77
2023/05/03 06:19:41;;;;;;;;;;;;;;;11.59;48.88;101769.63;4969885;28;6780;-78
2023/05/03 06:22:07;;;;;;;;;;;;;;;11.64;48.95;101773.38;4953600;28;8219;-77
2023/05/03 06:24:33;;;;;;;;;;;;;;;11.69;48.96;101768.56;4953746;28;6875;-77
2023/05/03 06:26:59;;;;;;;;;;;;;;;11.75;49.28;101767.25;4956373;28;6776;-77
2023/05/03 06:29:25;;;;;;;;;;;;;;;11.85;49.59;101768.78;4972075;28;7055;-77
2023/05/03 06:31:51;;;;;;;;;;;;;;;11.92;49.23;101768.34;4954152;28;7295;-77
2023/05/03 06:34:21;;;;;;;;;;;;;;;11.98;48.99;101765.31;4955583;28;6804;-77
2023/05/03 06:36:47;;;;;;;;;;;;;;;12.05;49.09;101759.78;4984410;28;7237;-77
2023/05/03 06:39:13;;;;;;;;;;;;;;;12.14;49.57;101756.03;4970661;28;10125;-77
2023/05/03 06:41:38;;;;;;;;;;;;;;;12.24;48.97;101755.81;4968039;28;6768;-77
2023/05/03 06:44:06;;;;;;;;;;;;;;;12.31;49.35;101750.28;4972692;28;7420;-78
2023/05/03 06:46:32;;;;;;;;;;;;;;;12.40;48.79;101746.50;4955712;28;8572;-77
2023/05/03 06:48:58;;;;;;;;;;;;;;;12.48;48.62;101751.31;4967474;28;7834;-77
2023/05/03 06:51:28;;;;;;;;;;;;;;;12.53;48.34;101750.72;4967937;28;6796;-77
2023/05/03 06:53:55;;;;;;;;;;;;;;;12.59;48.45;101754.56;4980079;28;6985;-77
2023/05/03 06:56:22;;;;;;;;;;;;;;;12.66;48.64;101760.97;4951885;28;7065;-77
2023/05/03 06:58:48;;;;;;;;;;;;;;;12.73;48.97;101757.97;4985794;28;6990;-77
2023/05/03 07:01:14;;;;;;;;;;;;;;;12.83;48.30;101754.25;4964914;28;7146;-77
2023/05/03 07:03:40;;;;;;;;;;;;;;;12.92;47.91;101749.66;4983289;28;6976;-77
2023/05/03 07:06:06;;;;;;;;;;;;;;;12.99;47.92;101747.47;4966342;28;6915;-77
2023/05/03 07:08:31;;;;;;;;;;;;;;;13.04;48.06;101746.06;4959812;28;6768;-77
2023/05/03 07:10:57;;;;;;;;;;;;;;;13.10;47.19;101745.53;4955164;28;7181;-77
2023/05/03 07:13:23;;;;;;;;;;;;;;;13.12;47.00;101736.22;4977928;28;6976;-77
2023/05/03 07:15:49;;;;;;;;;;;;;;;13.17;47.71;101745.09;4957583;28;7472;-78
2023/05/03 07:18:15;;;;;;;;;;;;;;;13.24;47.12;101747.22;4959209;28;7007;-78
2023/05/03 07:20:40;;;;;;;;;;;;;;;13.28;47.41;101750.88;4966859;28;6987;-77
2023/05/03 07:23:06;;;;;;;;;;;;;;;13.34;46.88;101746.97;4953015;28;7715;-78
2023/05/03 07:25:32;;;;;;;;;;;;;;;13.41;47.50;101747.34;4969188;28;8582;-78
2023/05/03 07:27:58;;;;;;;;;;;;;;;13.47;46.59;101738.31;4971010;28;7388;-77
2023/05/03 07:30:24;;;;;;;;;;;;;;;13.55;47.29;101741.31;4950650;28;6835;-77
2023/05/03 07:32:50;;;;;;;;;;;;;;;13.63;47.15;101739.19;4967234;28;7833;-77
2023/05/03 07:35:15;;;;;;;;;;;;;;;13.75;46.83;101734.72;4944631;28;13322;-77
2023/05/03 07:37:42;;;;;;;;;;;;;;;13.87;47.16;101733.63;4949785;28;6800;-77
2023/05/03 07:40:08;;;;;;;;;;;;;;;13.96;46.27;101729.00;4962800;28;7257;-76
2023/05/03 07:42:35;;;;;;;;;;;;;;;14.03;46.83;101723.38;4948357;28;6930;-75
2023/05/03 07:45:01;;;;;;;;;;;;;;;14.12;46.33;101720.41;4967559;28;7364;-75
2023/05/03 07:47:27;;;;;;;;;;;;;;;14.21;46.05;101725.19;4946769;28;8072;-75
2023/05/03 07:49:53;;;;;;;;;;;;;;;14.33;45.64;101726.66;4969744;28;7402;-75
2023/05/03 07:52:19;;;;;;;;;;;;;;;14.43;45.64;101723.75;4951224;28;7745;-75
2023/05/03 07:54:45;;;;;;;;;;;;;;;14.53;45.40;101728.59;4980107;28;7040;-76
2023/05/03 07:57:15;;;;;;;;;;;;;;;14.62;45.20;101720.44;4945295;28;7053;-76
2023/05/03 07:59:42;;;;;;;;;;;;;;;14.75;44.73;101716.84;4969318;28;6872;-75
2023/05/03 08:02:08;;;;;;;;;;;;;;;14.85;45.09;101721.69;4962524;28;6804;-75
2023/05/03 08:04:34;;;;;;;;;;;;;;;14.96;44.56;101726.50;4970472;28;6785;-76
2023/05/03 08:07:01;;;;;;;;;;;;;;;15.07;44.63;101727.06;4972704;28;7400;-75
2023/05/03 08:09:28;;;;;;;;;;;;;;;15.18;44.37;101720.72;4949140;28;7226;-75
2023/05/03 08:11:56;;;;;;;;;;;;;;;15.26;43.63;101722.00;4971155;28;6931;-75
2023/05/03 08:14:22;;;;;;;;;;;;;;;15.34;43.17;101719.78;4971892;28;6872;-75
2023/05/03 08:16:48;;;;;;;;;;;;;;;15.40;42.96;101722.69;4974206;28;7165;-75
2023/05/03 08:19:14;;;;;;;;;;;;;;;15.44;42.87;101717.66;4970368;28;7226;-75
2023/05/03 08:21:39;;;;;;;;;;;;;;;15.48;42.61;101719.59;4953293;28;7221;-75
2023/05/03 08:24:07;;;;;;;;;;;;;;;15.56;42.72;101713.13;4967423;28;6775;-75
2023/05/03 08:26:34;;;;;;;;;;;;;;;15.65;42.85;101716.16;4970968;28;6812;-76
2023/05/03 08:29:02;;;;;;;;;;;;;;;15.78;42.65;101709.84;4952394;28;7072;-75
2023/05/03 08:31:29;;;;;;;;;;;;;;;15.93;42.67;101714.91;4986366;28;6796;-76
2023/05/03 08:33:55;;;;;;;;;;;;;;;16.02;41.84;101713.53;4988095;28;6978;-75
2023/05/03 08:36:20;;;;;;;;;;;;;;;16.10;42.19;101717.38;4955290;28;7203;-75
2023/05/03 08:38:46;;;;;;;;;;;;;;;16.21;42.17;101711.00;4967095;28;6760;-75
2023/05/03 08:41:30;;;;;;;;;;;;;;;16.40;42.00;101713.56;4964444;28;6792;-75
2023/05/03 08:43:58;;;;;;;;;;;;;;;16.56;41.98;101694.41;4959237;28;6955;-75
2023/05/03 08:46:27;;;;;;;;;;;;;;;16.74;41.50;101690.03;4968510;28;7011;-76
2023/05/03 08:48:53;;;;;;;;;;;;;;;16.94;41.45;101690.00;4961609;28;8222;-75
2023/05/03 08:51:22;;;;;;;;;;;;;;;17.13;40.98;101676.13;4955117;28;7015;-75
2023/05/03 08:53:48;;;;;;;;;;;;;;;17.41;41.05;101681.59;4953833;28;6808;-75
2023/05/03 08:56:32;;;;;;;;;;;;;;;17.74;39.08;101670.75;4954635;28;6796;-75
2023/05/03 08:59:06;;;;;;;;;;;;;;;18.10;38.32;101675.63;4956583;28;6795;-76
2023/05/03 09:01:32;;;;;;;;;;;;;;;18.63;37.98;101685.28;4962421;28;6959;-76
2023/05/03 09:03:57;;;;;;;;;;;;;;;19.12;37.02;101665.34;4974379;28;6854;-76
2023/05/03 09:06:27;;;;;;;;;;;;;;;19.62;35.80;101669.50;4976783;28;7227;-75
2023/05/03 09:08:54;;;;;;;;;;;;;;;20.08;35.30;101670.00;4963365;28;6808;-75
2023/05/03 09:11:26;;;;;;;;;;;;;;;20.48;34.04;101675.47;4956424;28;7008;-75
2023/05/03 09:13:53;;;;;;;;;;;;;;;20.88;34.15;101678.28;4987720;28;6847;-76
2023/05/03 09:16:26;;;;;;;;;;;;;;;21.34;33.91;101681.16;4950187;28;7838;-75
2023/05/03 09:19:00;;;;;;;;;;;;;;;21.73;33.67;101669.03;4978840;28;7336;-75
2023/05/03 09:21:28;;;;;;;;;;;;;;;22.00;32.81;101675.66;4937514;28;8822;-75
2023/05/03 09:23:54;;;;;;;;;;;;;;;22.24;32.47;101665.69;4958596;28;7416;-75
2023/05/03 09:26:31;;;;;;;;;;;;;;;22.48;31.83;101667.88;4970207;28;6919;-75
2023/05/03 09:29:04;;;;;;;;;;;;;;;22.60;31.10;101665.56;4987162;28;6991;-75
2023/05/03 09:31:32;;;;;;;;;;;;;;;22.72;31.68;101664.00;4987243;28;6800;-75
2023/05/03 09:33:58;;;;;;;;;;;;;;;22.97;31.43;101651.34;4983987;28;6979;-75
2023/05/03 09:36:26;;;;;;;;;;;;;;;23.20;31.53;101648.25;4988515;28;6991;-75
2023/05/03 09:38:53;;;;;;;;;;;;;;;23.43;30.72;101646.84;4952536;28;6824;-75
2023/05/03 09:41:30;;;;;;;;;;;;;;;23.70;30.64;101640.25;4972547;28;7317;-75
2023/05/03 09:44:01;;;;;;;;;;;;;;;23.84;30.03;101635.19;4979487;28;7007;-75
2023/05/03 09:46:29;;;;;;;;;;;;;;;23.98;29.84;101631.84;4969384;28;6812;-75
2023/05/03 09:48:56;;;;;;;;;;;;;;;24.19;30.11;101615.56;4963107;28;7274;-75
2023/05/03 09:51:25;;;;;;;;;;;;;;;24.39;29.48;101627.97;4970840;28;6974;-75
2023/05/03 09:53:50;;;;;;;;;;;;;;;24.72;29.53;101620.41;4962736;28;6800;-75
2023/05/03 09:56:19;;;;;;;;;;;;;;;25.13;28.96;101622.50;4955312;28;7000;-76
2023/05/03 09:58:46;;;;;;;;;;;;;;;25.59;28.64;101615.78;4960342;28;6812;-76
2023/05/03 10:01:14;;;;;;;;;;;;;;;26.00;27.92;101620.31;4963047;28;7380;-76
2023/05/03 10:03:49;;;;;;;;;;;;;;;26.15;27.37;101622.09;4962216;28;6800;-76
2023/05/03 10:06:34;;;;;;;;;;;;;;;26.10;26.75;101630.84;4944651;28;7090;-76
2023/05/03 10:09:29;;;;;;;;;;;;;;;25.94;27.31;101633.44;4969778;28;6863;-75
2023/05/03 10:12:00;;;;;;;;;;;;;;;26.00;27.28;101622.94;4964008;28;7814;-75
2023/05/03 10:14:26;;;;;;;;;;;;;;;26.00;27.01;101627.34;4967460;28;7235;-75
2023/05/03 10:17:22;;;;;;;;;;;;;;;25.98;26.82;101634.31;4953843;28;6812;-76
2023/05/03 10:20:05;;;;;;;;;;;;;;;26.16;26.77;101629.13;4954552;28;6824;-76
2023/05/03 10:22:31;;;;;;;;;;;;;;;26.25;25.97;101628.31;4951733;28;7184;-76
2023/05/03 10:25:07;;;;;;;;;;;;;;;26.10;25.68;101626.50;4964365;28;6780;-75
2023/05/03 10:27:44;;;;;;;;;;;;;;;26.10;26.04;101626.50;4953412;28;6788;-75
2023/05/03 10:30:38;;;;;;;;;;;;;;;26.25;26.18;101625.69;4966232;28;6977;-75
2023/05/03 10:33:13;;;;;;;;;;;;;;;26.52;25.95;101616.09;4985556;28;7273;-76
2023/05/03 10:35:51;;;;;;;;;;;;;;;26.85;25.50;101613.47;4955185;28;6791;-75
2023/05/03 10:38:23;;;;;;;;;;;;;;;27.05;25.15;101609.97;4946502;28;6808;-76
2023/05/03 10:40:49;;;;;;;;;;;;;;;27.05;25.33;101615.22;4955699;28;6788;-75
2023/05/03 10:43:33;;;;;;;;;;;;;;;27.08;24.80;101607.31;4971864;28;7842;-75
2023/05/03 10:46:11;;;;;;;;;;;;;;;27.10;24.88;101597.66;4947954;28;6776;-75
2023/05/03 10:48:37;;;;;;;;;;;;;;;27.14;24.64;101587.13;4975407;28;7239;-75
2023/05/03 10:51:35;;;;;;;;;;;;;;;27.08;24.36;101602.91;4961613;28;6965;-75
2023/05/03 10:54:01;;;;;;;;;;;;;;;27.15;24.37;101602.03;4965277;28;7895;-75
2023/05/03 10:56:26;;;;;;;;;;;;;;;27.27;24.47;101601.13;4951172;28;6776;-75
2023/05/03 10:58:55;;;;;;;;;;;;;;;27.31;24.25;101594.97;4966608;28;6946;-75
2023/05/03 11:01:25;;;;;;;;;;;;;;;27.40;24.29;101595.81;4952062;28;6804;-75
2023/05/03 11:04:29;;;;;;;;;;;;;;;27.30;24.01;101597.63;4939439;28;6992;-75
2023/05/03 11:06:55;;;;;;;;;;;;;;;26.96;23.85;101590.69;4953711;28;7011;-75
2023/05/03 11:09:31;;;;;;;;;;;;;;;26.93;23.80;101585.41;4968525;28;6800;-75
2023/05/03 11:11:57;;;;;;;;;;;;;;;26.96;24.14;101585.41;4943219;28;7015;-75
2023/05/03 11:14:23;;;;;;;;;;;;;;;26.99;23.78;101577.50;4955232;28;6808;-75
2023/05/03 11:16:50;;;;;;;;;;;;;;;27.09;24.09;101582.75;4951580;28;7000;-75
2023/05/03 11:19:16;;;;;;;;;;;;;;;27.27;23.82;101580.06;4943151;28;7170;-75
2023/05/03 11:21:43;;;;;;;;;;;;;;;27.56;23.78;101573.84;4946079;28;7236;-75
2023/05/03 11:24:08;;;;;;;;;;;;;;;27.90;23.60;101577.19;4967195;28;7341;-75
2023/05/03 11:26:39;;;;;;;;;;;;;;;28.12;22.81;101565.66;4952340;28;6771;-75
2023/05/03 11:29:05;;;;;;;;;;;;;;;28.26;23.50;101568.22;4936195;28;7263;-76
2023/05/03 11:31:31;;;;;;;;;;;;;;;28.58;23.11;101568.81;4937721;28;7603;-76
2023/05/03 11:33:57;;;;;;;;;;;;;;;28.62;22.58;101567.03;4968291;28;7286;-76
2023/05/03 11:36:25;;;;;;;;;;;;;;;28.28;22.55;101566.44;4970738;28;6785;-76
2023/05/03 11:38:50;;;;;;;;;;;;;;;27.98;22.59;101562.22;4967486;28;7220;-76
2023/05/03 11:41:16;;;;;;;;;;;;;;;27.72;22.87;101558.84;4954310;28;6851;-76
2023/05/03 11:43:48;;;;;;;;;;;;;;;27.55;22.71;101565.97;4958423;28;7333;-76
2023/05/03 11:46:23;;;;;;;;;;;;;;;27.63;23.08;101564.16;4953673;28;6974;-76
2023/05/03 11:48:49;;;;;;;;;;;;;;;27.82;23.00;101562.31;4965812;28;6880;-76
2023/05/03 11:51:22;;;;;;;;;;;;;;;28.17;22.65;101556.81;4965704;28;6788;-76
2023/05/03 11:53:48;;;;;;;;;;;;;;;28.37;22.16;101546.16;4979317;28;6800;-76
2023/05/03 11:56:16;;;;;;;;;;;;;;;28.33;22.13;101553.22;4949843;28;7190;-76
2023/05/03 11:58:58;;;;;;;;;;;;;;;28.26;22.14;101540.97;4950957;28;7012;-76
2023/05/03 12:01:29;;;;;;;;;;;;;;;27.93;22.91;101537.69;4947044;28;7027;-76
2023/05/03 12:04:03;;;;;;;;;;;;;;;27.56;22.55;101544.00;4951588;28;6927;-76
2023/05/03 12:06:33;;;;;;;;;;;;;;;27.45;23.32;101536.16;4967409;28;6792;-76
2023/05/03 12:09:03;;;;;;;;;;;;;;;27.64;23.13;101544.00;4947701;28;7129;-76
2023/05/03 12:11:29;;;;;;;;;;;;;;;27.80;22.29;101532.47;4957765;28;6784;-76
2023/05/03 12:14:01;;;;;;;;;;;;;;;27.76;22.18;101530.75;4960884;28;6780;-76
2023/05/03 12:16:27;;;;;;;;;;;;;;;27.76;22.32;101528.13;4966505;28;6963;-76
2023/05/03 12:19:01;;;;;;;;;;;;;;;27.86;22.73;101532.44;4967316;28;6792;-76
2023/05/03 12:21:46;;;;;;;;;;;;;;;27.93;22.56;101532.41;4968692;28;6816;-76
2023/05/03 12:24:16;;;;;;;;;;;;;;;28.07;22.62;101520.00;4956692;28;7198;-75
2023/05/03 12:26:45;;;;;;;;;;;;;;;28.02;22.30;101529.72;4981046;28;7135;-75
2023/05/03 12:29:12;;;;;;;;;;;;;;;27.89;22.18;101526.28;4966116;28;7128;-75
2023/05/03 12:31:39;;;;;;;;;;;;;;;27.75;22.42;101513.19;4950684;28;6975;-75
2023/05/03 12:34:04;;;;;;;;;;;;;;;27.63;22.31;101518.56;4965564;28;6957;-75
2023/05/03 12:36:31;;;;;;;;;;;;;;;27.35;22.46;101505.50;4956446;28;6998;-75
2023/05/03 12:38:58;;;;;;;;;;;;;;;27.31;22.36;101510.75;4966655;28;6811;-74
2023/05/03 12:41:28;;;;;;;;;;;;;;;27.26;22.54;101502.03;4954537;28;6970;-75
2023/05/03 12:43:56;;;;;;;;;;;;;;;27.16;22.35;101500.31;4963118;28;7014;-72
2023/05/03 12:46:22;;;;;;;;;;;;;;;27.08;22.70;101502.94;4976252;28;9520;-71
2023/05/03 12:48:49;;;;;;;;;;;;;;;27.00;22.97;101494.22;4967080;28;6784;-74
2023/05/03 12:51:15;;;;;;;;;;;;;;;27.07;22.76;101485.41;4966530;28;7011;-72
2023/05/03 12:53:40;;;;;;;;;;;;;;;27.03;22.54;101492.44;4969399;28;7256;-71
2023/05/03 12:56:06;;;;;;;;;;;;;;;26.70;23.08;101488.13;4973749;28;6788;-71